Dunbridge, OH

7:46 AM EST on January 18, 2017 (GMT -0500)
Near Woodmore High School | | Change Station

Elev 631 ft 41.47 °N, 83.29 °W | Updated 31 seconds ago

Overcast
Overcast
37.2 °F
Feels Like 37.2 °F
N
2.0
Wind Variable Wind from WSW

Today
High -- | Low -- °F
--% Chance of Precip.
Yesterday
High -- | Low -- °F
Precip. -- in
Pressure 30.07 in
Visibility 9.0 miles
Clouds Overcast 800 ft
Dew Point 35.0 °F
Humidity 92%
Rainfall 0.00 in
Snow Depth Not available.
7:56 AM 5:33 PM
Waning Gibbous, 63% visible
METAR KTDZ 181153Z AUTO 26013KT 9SM OVC008 03/02 A3006 RMK AO2 SLP182 60000 70031 T00280017 10044 20028 53016
Pressure 30.07 in
Visibility 9.0 miles
Clouds Overcast 800 ft
Dew Point 35.0 °F
Humidity 92%
Rainfall 0.00 in
Snow Depth Not available.
7:56 AM 5:33 PM
Waning Gibbous, 63% visible
METAR KTDZ 181153Z AUTO 26013KT 9SM OVC008 03/02 A3006 RMK AO2 SLP182 60000 70031 T00280017 10044 20028 53016

Get Your Daily Forecast Email!

Thanks for signing up!

Be on the lookout for a verification email in your inbox.

You'll start receiving the daily forecast at 8 AM.

×

10-Day Weather Forecast

Almanac

Astronomy

Jan. 18, 2017 Rise Set
Actual Time
Civil Twilight
Nautical Twilight
Astronomical Twilight
Moon
Length of Visible Light
Length of Day
Tomorrow will be .
, % of the Moon is Illuminated

Today's Extremes

State Highs State Lows

Community

WunderPhotos

Upload Photos

1,962,540 photos uploaded!

WunderBlog® & News

Nearby

Air Quality

  Air Quality AQ Index Pollutant
Not available.

Snow Depth

Station Depth Elevation

Earthquake Activity

City Distance Mag. Time & Date
Minimum magnitude displayed is 2.5.

Coastal Water Temperatures

Place Temperature

Stations

Nearby Weather Stations

Station Location Temp. Windchill Dew Point Humidity Wind Precip. Elev Updated Type
                   

Watches & Warnings

There are currently no watches in effect.